Time;durP1;ratioP1;P1;durP2;ratioP2;P2;SDS_P1;SDS_P2;PMS_P1;PMS_P2;Temp;Humidity;BMP_temperature;BMP_pressure;BME280_temperature;BME280_humidity;BME280_pressure;Samples;Min_cycle;Max_cycle;Signal;HPM_P1;HPM_P2
2022/08/05 00:02:33;;;;;;;10.00;5.10;;;;;;;22.03;49.74;99037.60;238504;1192;139119;-61
2022/08/05 00:07:36;;;;;;;9.10;5.10;;;;;;;21.95;49.97;99036.80;238270;1192;139373;-59
2022/08/05 00:12:59;;;;;;;7.70;4.10;;;;;;;21.91;50.12;99035.82;238353;1192;138937;-61
2022/08/05 00:18:07;;;;;;;8.60;4.30;;;;;;;21.84;50.13;99033.13;238220;1192;139592;-60
2022/08/05 00:23:12;;;;;;;;;;;;;;;21.78;50.23;99032.00;238160;1192;139605;-59
2022/08/05 00:28:16;;;;;;;5.10;3.60;;;;;;;21.70;50.51;99031.35;238247;1192;125853;-59
2022/08/05 00:33:31;;;;;;;7.10;4.00;;;;;;;21.63;50.70;99027.24;238203;1192;139523;-63
2022/08/05 00:38:54;;;;;;;7.20;3.60;;;;;;;21.59;50.81;99026.48;238233;1192;139897;-61
2022/08/05 00:44:01;;;;;;;5.30;3.90;;;;;;;21.55;50.90;99024.04;238302;1192;139320;-61
2022/08/05 00:49:04;;;;;;;8.30;4.30;;;;;;;21.47;51.07;99025.75;238279;1192;139616;-61
2022/08/05 00:54:11;;;;;;;7.40;3.90;;;;;;;21.41;51.22;99022.04;238278;1192;138880;-61
2022/08/05 00:59:14;;;;;;;6.20;3.60;;;;;;;21.35;51.41;99015.72;238291;1192;139912;-61
2022/08/05 01:04:17;;;;;;;8.70;4.40;;;;;;;21.29;51.54;99015.44;238277;1192;140233;-61
2022/08/05 01:09:28;;;;;;;6.90;3.80;;;;;;;21.22;51.72;99014.50;238274;1192;139191;-61
2022/08/05 01:14:39;;;;;;;8.70;4.00;;;;;;;21.18;51.79;99014.77;238400;1192;140425;-62
2022/08/05 01:19:52;;;;;;;6.70;4.20;;;;;;;21.12;52.07;99011.83;238320;1192;139046;-61
2022/08/05 01:25:41;;;;;;;6.80;4.30;;;;;;;21.06;52.19;99014.95;238011;1192;139664;-62
2022/08/05 01:31:39;;;;;;;5.90;3.80;;;;;;;21.03;52.21;99011.83;238259;1192;140420;-62
2022/08/05 01:36:52;;;;;;;11.80;4.50;;;;;;;21.01;52.25;99003.80;238190;1192;139492;-61
2022/08/05 01:41:57;;;;;;;8.40;4.90;;;;;;;20.98;52.38;98999.41;238382;1192;140076;-62
2022/08/05 01:47:03;;;;;;;6.50;4.60;;;;;;;20.92;52.46;98993.81;238151;1192;139482;-62
2022/08/05 01:52:10;;;;;;;9.30;4.80;;;;;;;20.88;52.40;98989.61;238014;1193;139971;-62
2022/08/05 01:57:25;;;;;;;9.40;4.80;;;;;;;20.82;52.61;98984.87;238225;1193;139489;-62
2022/08/05 02:02:55;;;;;;;8.50;4.50;;;;;;;20.77;52.72;98985.55;238450;1192;139694;-62
2022/08/05 02:07:59;;;;;;;10.30;5.10;;;;;;;20.70;52.79;98982.69;238315;1192;139160;-62
2022/08/05 02:13:26;;;;;;;7.20;4.40;;;;;;;20.64;52.93;98982.02;238275;1192;140056;-61
2022/08/05 02:18:55;;;;;;;12.00;4.90;;;;;;;20.60;53.13;98974.69;237872;1192;139729;-62
2022/08/05 02:24:05;;;;;;;6.60;4.70;;;;;;;20.57;53.30;98970.17;238424;1192;138965;-61
2022/08/05 02:29:12;;;;;;;9.50;4.60;;;;;;;20.54;53.30;98962.32;238172;1192;138725;-60
2022/08/05 02:34:30;;;;;;;6.50;4.30;;;;;;;20.52;53.35;98958.59;238362;1192;139897;-61
2022/08/05 02:39:36;;;;;;;12.90;4.90;;;;;;;20.51;53.43;98958.48;238297;1192;139148;-61
2022/08/05 02:44:44;;;;;;;7.30;4.60;;;;;;;20.49;53.53;98960.36;238390;1192;140563;-61
2022/08/05 02:49:47;;;;;;;6.60;4.20;;;;;;;20.47;53.61;98965.18;238251;1192;138887;-61
2022/08/05 02:54:51;;;;;;;8.30;4.20;;;;;;;20.45;53.76;98963.96;238149;1192;139715;-60
2022/08/05 02:59:54;;;;;;;7.80;4.50;;;;;;;20.42;53.91;98959.92;238282;1192;139070;-60
2022/08/05 03:04:59;;;;;;;5.80;4.00;;;;;;;20.40;53.96;98963.39;238271;1192;139522;-60
2022/08/05 03:10:02;;;;;;;7.20;4.60;;;;;;;20.38;54.17;98961.86;238326;1192;138578;-60
2022/08/05 03:15:09;;;;;;;;;;;;;;;20.35;54.22;98957.48;238257;1192;139503;-61
2022/08/05 03:20:14;;;;;;;7.40;4.70;;;;;;;20.30;54.26;98958.26;238505;1192;126192;-60
2022/08/05 03:25:18;;;;;;;9.50;5.00;;;;;;;20.29;54.39;98954.50;238309;1192;139183;-61
2022/08/05 03:30:42;;;;;;;7.10;4.60;;;;;;;20.26;54.39;98956.28;238141;1192;138689;-61
2022/08/05 03:35:47;;;;;;;8.90;4.80;;;;;;;20.23;54.58;98955.40;238322;1192;139118;-61
2022/08/05 03:40:52;;;;;;;66.00;58.50;;;;;;;20.24;54.84;98952.28;238384;1192;139385;-61
2022/08/05 03:45:59;;;;;;;79.90;65.30;;;;;;;20.49;55.72;98956.87;238234;1192;139393;-61
2022/08/05 03:51:10;;;;;;;9.40;5.50;;;;;;;20.78;55.51;98954.11;238286;1192;140125;-62
2022/08/05 03:56:43;;;;;;;11.10;5.10;;;;;;;21.00;55.06;98947.61;238387;1192;139258;-62
2022/08/05 04:01:49;;;;;;;10.20;5.20;;;;;;;21.10;54.65;98946.02;238287;1192;139682;-62
2022/08/05 04:06:54;;;;;;;11.40;5.50;;;;;;;21.16;54.60;98939.74;238414;1192;140639;-62
2022/08/05 04:11:58;;;;;;;99.10;81.80;;;;;;;21.46;55.17;98943.19;238173;1193;140122;-60
2022/08/05 04:17:01;;;;;;;13.80;10.00;;;;;;;21.72;54.90;98939.83;238021;1193;141653;-61
2022/08/05 04:22:07;;;;;;;16.50;7.90;;;;;;;21.91;54.58;98939.33;238061;1193;139527;-60
2022/08/05 04:27:14;;;;;;;10.00;7.10;;;;;;;22.06;54.30;98944.33;238117;1192;139220;-59
2022/08/05 04:32:17;;;;;;;8.70;6.50;;;;;;;22.14;54.15;98945.86;238236;1193;139548;-62
2022/08/05 04:37:33;;;;;;;14.30;5.40;;;;;;;22.32;54.00;98940.94;238295;1192;139553;-61
2022/08/05 04:42:56;;;;;;;47.30;7.60;;;;;;;22.16;52.88;98943.76;238206;1192;140210;-61
2022/08/05 04:48:07;;;;;;;71.50;9.70;;;;;;;22.03;53.24;98942.83;238325;1192;140182;-61
2022/08/05 04:53:18;;;;;;;77.40;10.10;;;;;;;21.93;53.02;98943.66;238311;1192;139185;-60
2022/08/05 04:58:22;;;;;;;66.20;10.30;;;;;;;21.80;53.02;98942.91;238265;1192;139776;-59
2022/08/05 05:03:25;;;;;;;59.90;7.90;;;;;;;21.69;53.25;98940.98;238181;1192;139769;-60
2022/08/05 05:08:43;;;;;;;58.00;39.00;;;;;;;21.65;53.51;98939.48;238159;1192;140580;-61
2022/08/05 05:13:51;;;;;;;17.50;9.80;;;;;;;21.68;53.81;98935.48;238273;1192;140555;-62
2022/08/05 05:18:57;;;;;;;17.50;7.70;;;;;;;21.68;53.91;98934.08;238232;1192;140871;-61
2022/08/05 05:24:20;;;;;;;10.20;6.00;;;;;;;21.80;54.41;98935.99;238359;1192;139275;-60
2022/08/05 05:29:23;;;;;;;39.70;27.50;;;;;;;21.95;54.55;98937.09;238405;1192;140051;-60
2022/08/05 05:34:46;;;;;;;26.80;18.80;;;;;;;22.22;54.93;98943.48;238225;1193;139329;-59
2022/08/05 05:39:53;;;;;;;16.80;11.50;;;;;;;22.53;54.99;98941.73;238247;1192;141439;-55
2022/08/05 05:44:58;;;;;;;9.30;5.70;;;;;;;22.77;54.61;98939.61;238305;1193;138924;-60
2022/08/05 05:50:01;;;;;;;12.70;5.20;;;;;;;22.90;54.07;98943.66;238119;1193;139621;-60
2022/08/05 05:55:08;;;;;;;20.70;15.70;;;;;;;22.97;53.91;98944.77;238348;1192;140527;-59
2022/08/05 06:00:18;;;;;;;15.60;11.50;;;;;;;23.15;54.19;98945.16;238256;1192;139938;-59
2022/08/05 06:05:21;;;;;;;10.90;8.40;;;;;;;23.33;54.02;98949.41;238122;1192;139765;-60
2022/08/05 06:10:24;;;;;;;9.70;6.80;;;;;;;23.51;53.97;98945.90;238266;1192;139497;-60
2022/08/05 06:15:31;;;;;;;10.40;4.90;;;;;;;23.64;53.82;98943.67;238312;1192;138869;-58
2022/08/05 06:20:53;;;;;;;11.40;5.40;;;;;;;23.65;53.57;98944.27;238286;1192;139647;-60
2022/08/05 06:25:56;;;;;;;96.80;70.90;;;;;;;23.64;53.59;98947.33;238521;1192;139707;-61
2022/08/05 06:31:21;;;;;;;16.50;9.10;;;;;;;23.67;53.61;98951.06;238261;1192;140171;-60
2022/08/05 06:36:33;;;;;;;12.60;6.80;;;;;;;23.73;53.98;98948.55;238337;1192;139612;-60
2022/08/05 06:42:01;;;;;;;15.60;6.30;;;;;;;23.89;54.08;98944.52;237982;1192;143146;-61
2022/08/05 06:47:06;;;;;;;10.80;5.80;;;;;;;23.94;53.55;98937.95;237904;1192;140311;-61
2022/08/05 06:52:23;;;;;;;44.50;32.80;;;;;;;23.96;53.51;98939.11;238172;1192;139955;-61
2022/08/05 06:57:40;;;;;;;38.30;28.20;;;;;;;24.03;53.40;98933.88;238253;1192;139777;-60
2022/08/05 07:03:03;;;;;;;10.60;8.00;;;;;;;24.04;53.28;98931.46;238232;1192;139879;-59
2022/08/05 07:08:11;;;;;;;16.30;8.70;;;;;;;24.06;53.49;98929.17;238474;1192;139903;-61
2022/08/05 07:18:55;;;;;;;12.90;8.40;;;;;;;24.18;53.74;98925.04;238296;1192;139257;-60
2022/08/05 07:24:00;;;;;;;17.00;8.70;;;;;;;24.27;54.15;98927.58;238255;1192;139046;-61
2022/08/05 07:29:04;;;;;;;11.40;6.90;;;;;;;24.43;54.45;98929.50;238394;1192;139868;-61
2022/08/05 07:34:07;;;;;;;10.70;5.50;;;;;;;24.57;54.63;98928.37;238200;1192;139552;-60
2022/08/05 07:39:17;;;;;;;15.80;6.30;;;;;;;24.68;54.30;98930.41;237968;1193;140144;-60
2022/08/05 07:44:39;;;;;;;15.50;6.40;;;;;;;24.78;53.83;98932.09;238371;1192;139208;-60
2022/08/05 07:49:50;;;;;;;10.80;5.60;;;;;;;24.86;53.46;98934.59;237803;1192;139054;-59
2022/08/05 07:54:56;;;;;;;18.50;5.80;;;;;;;24.91;53.29;98934.48;238199;1192;138931;-60
2022/08/05 07:59:59;;;;;;;15.90;6.20;;;;;;;24.98;52.91;98929.05;238064;1192;139632;-60
2022/08/05 08:05:03;;;;;;;17.10;6.70;;;;;;;25.06;52.89;98927.22;237978;1192;139066;-61
2022/08/05 08:10:06;;;;;;;19.30;7.80;;;;;;;25.10;52.85;98922.13;238253;1192;140916;-60
2022/08/05 08:15:10;;;;;;;82.20;61.00;;;;;;;25.18;52.86;98921.19;238228;1192;139459;-60
2022/08/05 08:20:17;;;;;;;24.20;10.60;;;;;;;25.30;52.58;98925.98;238155;1192;141458;-58
2022/08/05 08:25:40;;;;;;;22.40;9.20;;;;;;;25.42;52.57;98923.69;238191;1192;139444;-60
2022/08/05 08:31:06;;;;;;;20.30;9.20;;;;;;;25.51;52.81;98919.79;238210;1192;139699;-62
2022/08/05 08:36:09;;;;;;;19.60;9.60;;;;;;;25.58;52.67;98921.34;238091;1192;141513;-61
2022/08/05 08:41:35;;;;;;;18.30;7.80;;;;;;;25.65;52.60;98920.27;237859;1192;140371;-60
2022/08/05 08:47:01;;;;;;;16.30;6.70;;;;;;;25.78;52.37;98921.24;237780;1192;142338;-58
2022/08/05 08:52:12;;;;;;;16.00;6.80;;;;;;;25.89;52.00;98921.48;237785;1193;140408;-61
2022/08/05 08:57:16;;;;;;;17.40;8.20;;;;;;;25.98;51.77;98923.91;237964;1192;139150;-60
2022/08/05 09:02:20;;;;;;;15.30;6.70;;;;;;;26.12;51.65;98921.17;238296;1192;139105;-61
2022/08/05 09:07:28;;;;;;;10.00;5.00;;;;;;;26.26;51.58;98919.30;237980;1192;139553;-60
2022/08/05 09:12:51;;;;;;;13.20;5.60;;;;;;;26.42;51.34;98917.40;238221;1192;138807;-60
2022/08/05 09:17:54;;;;;;;12.90;6.10;;;;;;;26.62;50.93;98917.50;238208;1192;139032;-61
2022/08/05 09:23:13;;;;;;;13.10;6.10;;;;;;;26.82;50.71;98914.48;238142;1192;139659;-61
2022/08/05 09:28:24;;;;;;;16.90;12.40;;;;;;;27.02;50.32;98909.45;238114;1192;139213;-60
2022/08/05 09:39:06;;;;;;;7.50;4.30;;;;;;;27.36;49.61;98896.31;232873;1193;115483;-83
2022/08/05 09:44:38;;;;;;;52.30;39.10;;;;;;;27.58;49.19;98897.19;231932;1196;107662;-78
2022/08/05 09:49:47;;;;;;;13.60;8.60;;;;;;;27.72;48.87;98889.86;233182;1193;102502;-91
2022/08/05 09:55:09;;;;;;;8.20;4.60;;;;;;;27.88;48.56;98884.45;232550;1193;114809;-73
2022/08/05 10:00:35;;;;;;;5.30;4.80;;;;;;;28.02;48.33;98882.05;232549;1190;114269;-69
2022/08/05 10:05:41;;;;;;;12.60;6.00;;;;;;;28.15;48.07;98880.77;231638;1193;101723;-68
2022/08/05 10:10:48;;;;;;;5.80;4.40;;;;;;;28.29;48.13;98874.94;231105;1195;115191;-63
2022/08/05 10:15:59;;;;;;;13.10;5.10;;;;;;;28.55;47.91;98871.82;231048;1195;106900;-66
2022/08/05 10:21:05;;;;;;;12.00;5.40;;;;;;;28.82;47.77;98862.34;231426;1193;101856;-67
2022/08/05 10:26:21;;;;;;;9.80;5.20;;;;;;;29.11;47.47;98869.05;236982;1193;139821;-59
2022/08/05 10:31:33;;;;;;;7.10;5.10;;;;;;;29.33;46.84;98868.13;237485;1195;139149;-60
2022/08/05 10:36:57;;;;;;;8.80;5.20;;;;;;;29.56;46.22;98860.22;237506;1195;139100;-60
2022/08/05 10:42:08;;;;;;;6.50;4.40;;;;;;;29.81;46.21;98857.17;237512;1195;139710;-60
2022/08/05 10:47:15;;;;;;;120.90;93.20;;;;;;;30.03;45.62;98852.03;237213;1195;139069;-60
2022/08/05 10:52:51;;;;;;;10.00;8.30;;;;;;;30.18;45.16;98847.85;237582;1193;142228;-60
2022/08/05 10:58:10;;;;;;;11.20;6.70;;;;;;;30.34;44.43;98841.83;237606;1193;140339;-60
2022/08/05 11:03:18;;;;;;;8.20;5.10;;;;;;;30.51;44.23;98837.33;237361;1195;139367;-60
2022/08/05 11:08:28;;;;;;;10.40;4.90;;;;;;;30.64;43.90;98834.80;237556;1195;138961;-61
2022/08/05 11:13:42;;;;;;;11.90;5.20;;;;;;;30.76;43.61;98832.05;237419;1193;139931;-60
2022/08/05 11:19:26;;;;;;;9.40;5.50;;;;;;;30.89;43.42;98828.73;237421;1194;139628;-60
2022/08/05 11:25:28;;;;;;;7.00;5.00;;;;;;;31.06;43.26;98826.79;237471;1195;139435;-60
2022/08/05 11:31:00;;;;;;;10.60;4.30;;;;;;;31.24;42.37;98826.23;237439;1194;138975;-59
2022/08/05 11:36:09;;;;;;;8.60;5.20;;;;;;;31.42;41.61;98826.13;237429;1195;139584;-60
2022/08/05 11:41:24;;;;;;;6.90;4.80;;;;;;;31.62;41.69;98826.86;237462;1195;139094;-60
2022/08/05 11:46:49;;;;;;;12.30;6.60;;;;;;;31.85;41.47;98823.31;237587;1194;138958;-60
2022/08/05 11:52:21;;;;;;;7.90;5.40;;;;;;;32.03;41.20;98821.97;237371;1194;139134;-59
2022/08/05 11:57:30;;;;;;;11.90;6.30;;;;;;;32.21;40.87;98815.02;237415;1195;139091;-60
2022/08/05 12:02:53;;;;;;;10.50;5.20;;;;;;;32.37;40.51;98814.16;237559;1194;139841;-60
2022/08/05 12:07:58;;;;;;;11.90;5.80;;;;;;;32.50;40.37;98809.55;237204;1195;139789;-60
2022/08/05 12:13:12;;;;;;;9.60;5.20;;;;;;;32.66;40.10;98807.63;237290;1194;139040;-59
2022/08/05 12:18:28;;;;;;;22.20;18.00;;;;;;;32.84;39.58;98800.48;237422;1194;139959;-59
2022/08/05 12:23:34;;;;;;;12.10;5.70;;;;;;;33.05;39.72;98794.08;237262;1195;139424;-59
2022/08/05 12:28:45;;;;;;;9.20;5.50;;;;;;;33.23;39.43;98788.46;237485;1194;139271;-58
2022/08/05 12:33:50;;;;;;;9.40;5.10;;;;;;;33.35;38.79;98783.82;237383;1194;140300;-59
2022/08/05 12:38:57;;;;;;;11.90;5.60;;;;;;;33.52;38.68;98781.20;237534;1195;139747;-58
2022/08/05 12:44:06;;;;;;;11.80;5.40;;;;;;;33.67;38.35;98783.77;237443;1195;139295;-59
2022/08/05 12:49:16;;;;;;;12.60;5.70;;;;;;;33.83;38.22;98785.61;237102;1195;138814;-60
2022/08/05 12:54:31;;;;;;;11.40;5.60;;;;;;;33.94;37.98;98781.54;237410;1195;141060;-59
2022/08/05 12:59:51;;;;;;;7.10;5.10;;;;;;;34.10;37.84;98778.36;237344;1194;138707;-60
2022/08/05 13:05:14;;;;;;;12.70;5.20;;;;;;;34.27;37.34;98772.42;237435;1194;140228;-60
2022/08/05 13:10:18;;;;;;;12.40;5.00;;;;;;;34.39;36.81;98770.87;237384;1195;140077;-59
2022/08/05 13:15:29;;;;;;;6.80;4.90;;;;;;;34.54;36.80;98769.48;237328;1194;139230;-57
2022/08/05 13:20:52;;;;;;;9.90;4.50;;;;;;;34.66;36.33;98763.27;237463;1194;139882;-60
2022/08/05 13:25:56;;;;;;;5.70;4.60;;;;;;;34.75;35.99;98759.66;237489;1194;141216;-58
2022/08/05 13:31:02;;;;;;;9.00;4.90;;;;;;;34.89;35.86;98755.99;237471;1195;139698;-59
2022/08/05 13:36:17;;;;;;;;;;;;;;;35.01;35.41;98748.95;237488;1194;139291;-58
2022/08/05 13:41:20;;;;;;;9.10;4.70;;;;;;;35.09;35.00;98749.30;237467;1194;126553;-60
2022/08/05 13:46:37;;;;;;;8.00;4.50;;;;;;;35.17;34.89;98743.73;237473;1195;138920;-59
2022/08/05 13:52:11;;;;;;;8.90;4.50;;;;;;;35.25;34.64;98745.42;237403;1194;140647;-59
2022/08/05 13:57:15;;;;;;;5.90;4.90;;;;;;;35.32;34.45;98743.42;237460;1195;139062;-60
2022/08/05 14:02:19;;;;;;;9.40;5.50;;;;;;;35.35;34.25;98739.30;237465;1194;139088;-62
2022/08/05 14:07:33;;;;;;;28.80;22.30;;;;;;;35.40;34.09;98734.69;237211;1195;139539;-60
2022/08/05 14:12:57;;;;;;;11.90;6.10;;;;;;;35.53;33.57;98736.25;236669;1195;140303;-59
2022/08/05 14:18:01;;;;;;;5.90;4.20;;;;;;;35.64;33.52;98729.70;237409;1195;139582;-60
2022/08/05 14:23:06;;;;;;;5.10;4.20;;;;;;;35.64;33.02;98723.06;237151;1194;140391;-60
2022/08/05 14:28:11;;;;;;;9.50;4.60;;;;;;;35.54;32.64;98720.77;237321;1194;140632;-62
2022/08/05 14:33:30;;;;;;;34.80;6.90;;;;;;;35.40;32.39;98715.70;237249;1194;139179;-59
2022/08/05 14:38:55;;;;;;;8.50;4.70;;;;;;;35.24;32.43;98711.83;237457;1194;138844;-59
2022/08/05 14:44:00;;;;;;;9.20;4.30;;;;;;;35.09;32.36;98709.70;237365;1194;139603;-61
2022/08/05 14:49:23;;;;;;;7.30;4.50;;;;;;;34.84;31.98;98707.33;237545;1194;139476;-57
2022/08/05 14:54:46;;;;;;;10.20;6.60;;;;;;;34.53;32.09;98711.52;237365;1194;138856;-57
2022/08/05 14:59:55;;;;;;;9.70;4.30;;;;;;;34.29;32.35;98712.44;237449;1195;139075;-57
2022/08/05 15:04:58;;;;;;;6.80;4.20;;;;;;;33.98;32.08;98712.30;237508;1195;139577;-57
2022/08/05 15:10:02;;;;;;;6.70;4.10;;;;;;;33.57;31.99;98705.06;237616;1194;139281;-59
2022/08/05 15:15:06;;;;;;;5.70;4.00;;;;;;;33.27;32.61;98698.92;237600;1194;139475;-58
2022/08/05 15:20:17;;;;;;;5.60;3.80;;;;;;;33.03;32.61;98695.23;237681;1194;139092;-58
2022/08/05 15:25:26;;;;;;;4.00;3.10;;;;;;;32.87;32.78;98694.98;237571;1195;139177;-56
2022/08/05 15:30:49;;;;;;;5.80;3.40;;;;;;;32.77;32.80;98695.01;237590;1194;139076;-58
2022/08/05 15:35:54;;;;;;;6.30;4.10;;;;;;;32.70;32.64;98688.92;237627;1194;139661;-58
2022/08/05 15:40:59;;;;;;;9.70;4.20;;;;;;;32.58;33.04;98682.14;237604;1195;139372;-58
2022/08/05 15:46:23;;;;;;;9.00;4.10;;;;;;;32.49;33.16;98679.78;237508;1195;139363;-58
2022/08/05 15:51:28;;;;;;;7.90;4.00;;;;;;;32.43;33.19;98678.33;237619;1194;141406;-59
2022/08/05 15:56:51;;;;;;;9.20;3.70;;;;;;;32.39;33.18;98682.61;237707;1195;139428;-58
2022/08/05 16:01:54;;;;;;;7.70;3.70;;;;;;;32.30;33.38;98678.94;237654;1194;139221;-58
2022/08/05 16:07:01;;;;;;;6.00;4.50;;;;;;;32.22;33.76;98680.48;237562;1194;140358;-59
2022/08/05 16:12:08;;;;;;;10.40;4.40;;;;;;;32.10;34.04;98677.20;237522;1193;139636;-58
2022/08/05 16:17:13;;;;;;;174.60;151.10;;;;;;;32.02;34.13;98671.13;237489;1194;139755;-59
2022/08/05 16:22:16;;;;;;;10.80;6.80;;;;;;;31.91;34.29;98672.73;237160;1195;140873;-58
2022/08/05 16:27:19;;;;;;;8.80;4.40;;;;;;;31.82;34.54;98678.77;237440;1195;139788;-58
2022/08/05 16:32:42;;;;;;;11.00;4.20;;;;;;;31.74;34.74;98680.14;237310;1195;139284;-58
2022/08/05 16:37:45;;;;;;;7.20;4.70;;;;;;;31.66;34.90;98683.46;237401;1195;139065;-58
2022/08/05 16:43:08;;;;;;;15.10;5.10;;;;;;;31.54;35.04;98678.80;237348;1195;139905;-58
2022/08/05 16:48:11;;;;;;;10.40;4.50;;;;;;;31.47;35.27;98676.48;236958;1195;139723;-59
2022/08/05 16:53:34;;;;;;;11.70;4.90;;;;;;;31.37;35.48;98674.67;237408;1194;139302;-58
2022/08/05 16:58:57;;;;;;;10.00;4.10;;;;;;;31.29;35.56;98676.31;236754;1195;139752;-58
2022/08/05 17:04:03;;;;;;;6.90;3.90;;;;;;;31.20;35.71;98674.72;236814;1195;139405;-59
2022/08/05 17:09:06;;;;;;;8.60;4.30;;;;;;;31.15;35.98;98682.02;237417;1195;138895;-58
2022/08/05 17:14:09;;;;;;;30.90;25.10;;;;;;;31.07;36.04;98681.48;237082;1194;139309;-58
2022/08/05 17:19:23;;;;;;;10.10;7.10;;;;;;;31.00;36.25;98681.31;237256;1195;140309;-56
2022/08/05 17:24:26;;;;;;;8.40;5.10;;;;;;;30.93;36.37;98685.05;237348;1195;139756;-58
2022/08/05 17:29:44;;;;;;;6.00;4.60;;;;;;;30.86;36.54;98684.92;237536;1195;140229;-58
2022/08/05 17:34:53;;;;;;;9.60;5.10;;;;;;;30.80;36.74;98688.27;237669;1194;138829;-58
2022/08/05 17:39:59;;;;;;;8.70;5.20;;;;;;;30.73;36.89;98691.40;237369;1195;139177;-57
2022/08/05 17:45:03;;;;;;;11.80;5.80;;;;;;;30.64;37.26;98689.95;237131;1195;139309;-58
2022/08/05 17:50:24;;;;;;;9.90;5.90;;;;;;;30.51;37.21;98692.42;237177;1195;142069;-58
2022/08/05 17:55:32;;;;;;;14.10;6.60;;;;;;;30.39;37.50;98690.73;237336;1195;138730;-58
2022/08/05 18:00:46;;;;;;;16.50;8.00;;;;;;;30.31;37.73;98695.36;237396;1194;139428;-58
2022/08/05 18:05:52;;;;;;;12.10;7.50;;;;;;;30.22;37.78;98690.16;237602;1194;139625;-58
2022/08/05 18:10:56;;;;;;;13.30;9.20;;;;;;;30.12;38.13;98688.48;237093;1195;142311;-58
2022/08/05 18:15:58;;;;;;;69.20;57.50;;;;;;;29.99;38.20;98694.58;236948;1195;139728;-58
2022/08/05 18:21:03;;;;;;;27.50;19.80;;;;;;;29.85;38.48;98695.20;237472;1194;139020;-59
2022/08/05 18:26:15;;;;;;;26.20;17.80;;;;;;;29.69;38.69;98699.21;237394;1194;139528;-58
2022/08/05 18:31:22;;;;;;;20.40;14.50;;;;;;;29.54;38.90;98701.50;236672;1195;140000;-58
2022/08/05 18:36:26;;;;;;;13.90;8.40;;;;;;;29.38;39.36;98702.91;237201;1195;140097;-59
2022/08/05 18:41:31;;;;;;;15.30;8.10;;;;;;;29.24;39.68;98710.54;237543;1194;138973;-59
2022/08/05 18:46:53;;;;;;;353.70;314.20;;;;;;;29.13;40.09;98710.26;237582;1195;139319;-59
2022/08/05 18:57:35;;;;;;;31.00;25.90;;;;;;;28.89;40.86;98713.48;237362;1194;139489;-58
2022/08/05 19:02:52;;;;;;;22.90;16.80;;;;;;;28.77;41.06;98713.13;237571;1194;139297;-59
2022/08/05 19:07:58;;;;;;;11.90;8.30;;;;;;;28.68;41.25;98723.30;237437;1194;139724;-58
2022/08/05 19:13:01;;;;;;;13.70;7.90;;;;;;;28.56;41.52;98725.90;237115;1195;139328;-60
2022/08/05 19:18:05;;;;;;;18.70;10.00;;;;;;;28.44;41.91;98731.14;237018;1194;139302;-58
2022/08/05 19:23:13;;;;;;;10.80;6.80;;;;;;;28.37;42.26;98734.23;237573;1195;139696;-59
2022/08/05 19:28:40;;;;;;;67.90;49.10;;;;;;;28.24;42.73;98739.87;237637;1194;139326;-59
2022/08/05 19:33:45;;;;;;;419.50;341.30;;;;;;;28.15;43.16;98733.67;237349;1195;139351;-58
2022/08/05 19:38:58;;;;;;;35.50;25.40;;;;;;;28.09;43.24;98734.14;237412;1195;140017;-58
2022/08/05 19:44:06;;;;;;;17.30;9.50;;;;;;;27.98;43.41;98742.35;237473;1194;139195;-58
2022/08/05 19:49:15;;;;;;;12.90;7.40;;;;;;;27.88;43.69;98748.18;237564;1195;139929;-57
2022/08/05 19:54:20;;;;;;;18.70;8.30;;;;;;;27.78;43.91;98754.85;237380;1195;139174;-58
2022/08/05 19:59:33;;;;;;;15.60;8.00;;;;;;;27.65;43.93;98746.43;237332;1195;139037;-56
2022/08/05 20:04:56;;;;;;;19.30;7.70;;;;;;;27.51;44.12;98742.37;237700;1194;139150;-57
2022/08/05 20:10:02;;;;;;;14.90;8.50;;;;;;;27.39;44.39;98748.76;237532;1194;139042;-60
2022/08/05 20:15:18;;;;;;;16.10;8.60;;;;;;;27.26;44.65;98749.84;237377;1195;139213;-59
2022/08/05 20:20:46;;;;;;;17.40;8.40;;;;;;;27.12;44.98;98745.79;237745;1195;139248;-58
2022/08/05 20:25:50;;;;;;;16.20;9.50;;;;;;;26.99;45.29;98745.54;237788;1194;139952;-59
2022/08/05 20:30:55;;;;;;;15.90;9.20;;;;;;;26.87;45.54;98752.29;237271;1194;139197;-57
2022/08/05 20:36:00;;;;;;;20.40;9.80;;;;;;;26.77;46.07;98748.90;237073;1196;138998;-57
2022/08/05 20:41:04;;;;;;;19.00;9.80;;;;;;;26.68;46.11;98749.80;237665;1195;139825;-57
2022/08/05 20:46:11;;;;;;;18.90;9.80;;;;;;;26.58;46.52;98749.48;237594;1194;139751;-57
2022/08/05 20:51:26;;;;;;;18.80;9.60;;;;;;;26.47;46.65;98748.17;236334;1195;140861;-57
2022/08/05 20:56:29;;;;;;;19.50;9.30;;;;;;;26.36;46.94;98748.05;237707;1194;139699;-57
2022/08/05 21:01:44;;;;;;;21.70;9.50;;;;;;;26.24;47.07;98747.95;237546;1195;139052;-58
2022/08/05 21:06:47;;;;;;;16.50;9.00;;;;;;;26.15;47.51;98749.20;237529;1195;141104;-58
2022/08/05 21:11:52;;;;;;;20.30;9.70;;;;;;;26.05;48.03;98746.05;237526;1194;141469;-57
2022/08/05 21:17:13;;;;;;;20.30;9.60;;;;;;;25.95;48.17;98747.38;237583;1195;139596;-59
2022/08/05 21:22:17;;;;;;;16.10;9.10;;;;;;;25.86;48.58;98750.85;237541;1195;139772;-59
2022/08/05 21:27:25;;;;;;;18.40;10.00;;;;;;;25.77;48.70;98755.67;237524;1195;139516;-59
2022/08/05 21:32:29;;;;;;;16.20;9.50;;;;;;;25.67;49.00;98754.02;237460;1194;140242;-58
2022/08/05 21:37:32;;;;;;;20.00;9.90;;;;;;;25.57;48.97;98756.70;237501;1195;139533;-59
2022/08/05 21:42:43;;;;;;;14.50;9.30;;;;;;;25.48;49.26;98754.04;237631;1195;140254;-58
2022/08/05 21:47:48;;;;;;;17.90;9.50;;;;;;;25.40;49.31;98751.64;237699;1195;139857;-59
2022/08/05 21:52:59;;;;;;;15.00;9.70;;;;;;;25.34;49.74;98762.13;237264;1195;139883;-58
2022/08/05 21:58:19;;;;;;;14.80;10.00;;;;;;;25.25;49.89;98766.00;237398;1195;139988;-58
2022/08/05 22:03:32;;;;;;;16.40;9.40;;;;;;;25.14;50.08;98769.30;237659;1193;139267;-58
2022/08/05 22:08:55;;;;;;;18.10;9.40;;;;;;;25.06;50.26;98771.57;237744;1194;140471;-58
2022/08/05 22:13:58;;;;;;;15.70;9.60;;;;;;;24.97;50.31;98766.75;237429;1195;139711;-58
2022/08/05 22:19:21;;;;;;;13.50;9.30;;;;;;;24.88;50.38;98768.33;237828;1193;139037;-57
2022/08/05 22:30:12;;;;;;;14.90;9.60;;;;;;;24.67;50.86;98763.63;237316;1195;139846;-59
2022/08/05 22:35:15;;;;;;;14.80;9.10;;;;;;;24.58;51.04;98762.61;237630;1193;139758;-59
2022/08/05 22:40:19;;;;;;;13.10;9.50;;;;;;;24.51;51.15;98764.91;237639;1194;142382;-58
2022/08/05 22:45:25;;;;;;;11.70;8.80;;;;;;;24.44;51.38;98760.89;237471;1194;139912;-60
2022/08/05 22:50:28;;;;;;;12.70;9.30;;;;;;;24.36;51.47;98763.11;237260;1196;140526;-60
2022/08/05 22:55:31;;;;;;;14.00;9.20;;;;;;;24.28;51.53;98760.45;237202;1195;139413;-60
2022/08/05 23:00:53;;;;;;;12.30;8.80;;;;;;;24.21;51.67;98757.39;237289;1195;139218;-60
2022/08/05 23:05:58;;;;;;;16.10;8.80;;;;;;;24.14;51.91;98758.42;237364;1195;140750;-60
2022/08/05 23:11:02;;;;;;;13.50;8.70;;;;;;;24.08;52.07;98760.41;237280;1195;140015;-63
2022/08/05 23:16:05;;;;;;;13.70;9.10;;;;;;;24.03;52.31;98761.52;237427;1195;141404;-59
2022/08/05 23:21:10;;;;;;;13.80;9.20;;;;;;;23.99;52.36;98755.02;237550;1195;139704;-59
2022/08/05 23:26:18;;;;;;;10.70;8.80;;;;;;;23.93;52.59;98754.97;237334;1195;139295;-61
2022/08/05 23:31:23;;;;;;;13.30;8.80;;;;;;;23.87;52.65;98751.41;237272;1195;139590;-59
2022/08/05 23:36:26;;;;;;;17.20;9.30;;;;;;;23.81;52.83;98745.35;237502;1194;139226;-59
2022/08/05 23:41:40;;;;;;;16.80;9.10;;;;;;;23.75;53.00;98739.92;237446;1194;140231;-59
2022/08/05 23:46:50;;;;;;;13.10;8.40;;;;;;;23.70;53.18;98745.65;237277;1195;139134;-59
2022/08/05 23:57:18;;;;;;;15.60;9.10;;;;;;;23.60;53.36;98745.09;237772;1195;138988;-59
